sensor_id;sensor_type;location;lat;lon;timestamp;P1;durP1;ratioP1;P2;durP2;ratioP2
43628;SDS011;56545;48.224;11.678;2023-01-23T00:00:55;41.53;;;22.10;;
43628;SDS011;56545;48.224;11.678;2023-01-23T00:03:22;40.30;;;21.00;;
43628;SDS011;56545;48.224;11.678;2023-01-23T00:05:58;37.50;;;20.38;;
43628;SDS011;56545;48.224;11.678;2023-01-23T00:08:29;36.17;;;19.85;;
43628;SDS011;56545;48.224;11.678;2023-01-23T00:10:55;33.92;;;19.30;;
43628;SDS011;56545;48.224;11.678;2023-01-23T00:13:21;31.13;;;18.17;;
43628;SDS011;56545;48.224;11.678;2023-01-23T00:15:47;28.65;;;16.55;;
43628;SDS011;56545;48.224;11.678;2023-01-23T00:18:13;25.90;;;15.68;;
43628;SDS011;56545;48.224;11.678;2023-01-23T00:20:40;22.65;;;14.35;;
43628;SDS011;56545;48.224;11.678;2023-01-23T00:23:06;24.23;;;14.77;;
43628;SDS011;56545;48.224;11.678;2023-01-23T00:25:33;25.98;;;15.50;;
43628;SDS011;56545;48.224;11.678;2023-01-23T00:27:59;26.83;;;15.52;;
43628;SDS011;56545;48.224;11.678;2023-01-23T00:30:26;26.30;;;16.05;;
43628;SDS011;56545;48.224;11.678;2023-01-23T00:32:52;24.48;;;15.27;;
43628;SDS011;56545;48.224;11.678;2023-01-23T00:35:18;26.80;;;16.45;;
43628;SDS011;56545;48.224;11.678;2023-01-23T00:37:45;25.63;;;15.65;;
43628;SDS011;56545;48.224;11.678;2023-01-23T00:40:10;23.83;;;14.82;;
43628;SDS011;56545;48.224;11.678;2023-01-23T00:42:37;25.85;;;14.98;;
43628;SDS011;56545;48.224;11.678;2023-01-23T00:45:03;23.58;;;15.20;;
43628;SDS011;56545;48.224;11.678;2023-01-23T00:47:30;25.02;;;14.88;;
43628;SDS011;56545;48.224;11.678;2023-01-23T00:49:56;22.67;;;14.95;;
43628;SDS011;56545;48.224;11.678;2023-01-23T00:52:23;24.30;;;14.85;;
43628;SDS011;56545;48.224;11.678;2023-01-23T00:54:49;25.10;;;14.98;;
43628;SDS011;56545;48.224;11.678;2023-01-23T00:57:15;26.30;;;16.30;;
43628;SDS011;56545;48.224;11.678;2023-01-23T00:59:41;25.83;;;15.15;;
43628;SDS011;56545;48.224;11.678;2023-01-23T01:02:07;24.13;;;15.02;;
43628;SDS011;56545;48.224;11.678;2023-01-23T01:04:33;23.98;;;14.88;;
43628;SDS011;56545;48.224;11.678;2023-01-23T01:06:59;26.90;;;15.25;;
43628;SDS011;56545;48.224;11.678;2023-01-23T01:09:25;25.85;;;15.18;;
43628;SDS011;56545;48.224;11.678;2023-01-23T01:11:51;24.65;;;14.40;;
43628;SDS011;56545;48.224;11.678;2023-01-23T01:14:17;26.02;;;15.40;;
43628;SDS011;56545;48.224;11.678;2023-01-23T01:16:43;25.10;;;15.30;;
43628;SDS011;56545;48.224;11.678;2023-01-23T01:19:13;27.83;;;16.35;;
43628;SDS011;56545;48.224;11.678;2023-01-23T01:21:40;25.17;;;15.90;;
43628;SDS011;56545;48.224;11.678;2023-01-23T01:24:06;25.35;;;14.48;;
43628;SDS011;56545;48.224;11.678;2023-01-23T01:26:33;24.10;;;14.35;;
43628;SDS011;56545;48.224;11.678;2023-01-23T01:28:59;25.48;;;15.65;;
43628;SDS011;56545;48.224;11.678;2023-01-23T01:31:26;25.88;;;15.25;;
43628;SDS011;56545;48.224;11.678;2023-01-23T01:33:51;27.27;;;16.15;;
43628;SDS011;56545;48.224;11.678;2023-01-23T01:36:18;27.35;;;16.85;;
43628;SDS011;56545;48.224;11.678;2023-01-23T01:38:46;26.27;;;16.20;;
43628;SDS011;56545;48.224;11.678;2023-01-23T01:41:12;25.48;;;15.68;;
43628;SDS011;56545;48.224;11.678;2023-01-23T01:43:39;29.58;;;17.55;;
43628;SDS011;56545;48.224;11.678;2023-01-23T01:51:25;25.80;;;15.90;;
43628;SDS011;56545;48.224;11.678;2023-01-23T01:54:05;25.92;;;15.82;;
43628;SDS011;56545;48.224;11.678;2023-01-23T01:57:21;28.33;;;17.10;;
43628;SDS011;56545;48.224;11.678;2023-01-23T01:59:42;27.98;;;16.63;;
43628;SDS011;56545;48.224;11.678;2023-01-23T02:02:15;27.70;;;16.88;;
43628;SDS011;56545;48.224;11.678;2023-01-23T02:04:47;32.30;;;18.95;;
43628;SDS011;56545;48.224;11.678;2023-01-23T02:07:25;29.40;;;16.77;;
43628;SDS011;56545;48.224;11.678;2023-01-23T02:09:57;27.45;;;15.52;;
43628;SDS011;56545;48.224;11.678;2023-01-23T02:12:25;29.13;;;16.90;;
43628;SDS011;56545;48.224;11.678;2023-01-23T02:14:52;26.08;;;16.33;;
43628;SDS011;56545;48.224;11.678;2023-01-23T02:17:18;29.33;;;17.50;;
43628;SDS011;56545;48.224;11.678;2023-01-23T02:24:57;28.58;;;16.63;;
43628;SDS011;56545;48.224;11.678;2023-01-23T02:27:41;26.88;;;16.10;;
43628;SDS011;56545;48.224;11.678;2023-01-23T02:30:07;24.98;;;15.52;;
43628;SDS011;56545;48.224;11.678;2023-01-23T02:32:34;27.27;;;16.33;;
43628;SDS011;56545;48.224;11.678;2023-01-23T02:35:04;27.63;;;15.68;;
43628;SDS011;56545;48.224;11.678;2023-01-23T02:37:35;26.55;;;15.93;;
43628;SDS011;56545;48.224;11.678;2023-01-23T02:40:03;25.85;;;15.20;;
43628;SDS011;56545;48.224;11.678;2023-01-23T02:42:30;27.30;;;16.20;;
43628;SDS011;56545;48.224;11.678;2023-01-23T02:44:57;27.33;;;16.60;;
43628;SDS011;56545;48.224;11.678;2023-01-23T02:47:23;28.23;;;16.98;;
43628;SDS011;56545;48.224;11.678;2023-01-23T02:52:21;28.95;;;17.38;;
43628;SDS011;56545;48.224;11.678;2023-01-23T02:54:47;26.75;;;17.10;;
43628;SDS011;56545;48.224;11.678;2023-01-23T02:57:13;28.63;;;17.90;;
43628;SDS011;56545;48.224;11.678;2023-01-23T02:59:42;30.05;;;17.67;;
43628;SDS011;56545;48.224;11.678;2023-01-23T03:02:26;31.27;;;17.20;;
43628;SDS011;56545;48.224;11.678;2023-01-23T03:04:52;28.77;;;17.52;;
43628;SDS011;56545;48.224;11.678;2023-01-23T03:07:18;29.60;;;17.67;;
43628;SDS011;56545;48.224;11.678;2023-01-23T03:09:44;28.08;;;17.35;;
43628;SDS011;56545;48.224;11.678;2023-01-23T03:12:12;27.88;;;17.17;;
43628;SDS011;56545;48.224;11.678;2023-01-23T03:14:39;27.38;;;16.90;;
43628;SDS011;56545;48.224;11.678;2023-01-23T03:17:05;27.33;;;16.27;;
43628;SDS011;56545;48.224;11.678;2023-01-23T03:19:34;28.27;;;17.38;;
43628;SDS011;56545;48.224;11.678;2023-01-23T03:22:00;26.95;;;16.67;;
43628;SDS011;56545;48.224;11.678;2023-01-23T03:24:26;27.83;;;16.80;;
43628;SDS011;56545;48.224;11.678;2023-01-23T03:26:52;26.63;;;16.00;;
43628;SDS011;56545;48.224;11.678;2023-01-23T03:29:19;25.63;;;15.98;;
43628;SDS011;56545;48.224;11.678;2023-01-23T03:32:08;25.33;;;16.45;;
43628;SDS011;56545;48.224;11.678;2023-01-23T03:34:35;26.63;;;16.92;;
43628;SDS011;56545;48.224;11.678;2023-01-23T03:37:02;27.17;;;17.33;;
43628;SDS011;56545;48.224;11.678;2023-01-23T03:39:28;26.40;;;16.55;;
43628;SDS011;56545;48.224;11.678;2023-01-23T03:42:13;26.98;;;17.40;;
43628;SDS011;56545;48.224;11.678;2023-01-23T03:44:39;26.52;;;16.67;;
43628;SDS011;56545;48.224;11.678;2023-01-23T03:47:05;27.98;;;16.75;;
43628;SDS011;56545;48.224;11.678;2023-01-23T03:49:31;27.52;;;17.05;;
43628;SDS011;56545;48.224;11.678;2023-01-23T03:52:00;27.92;;;17.63;;
43628;SDS011;56545;48.224;11.678;2023-01-23T03:54:27;27.85;;;17.52;;
43628;SDS011;56545;48.224;11.678;2023-01-23T03:56:53;27.48;;;16.95;;
43628;SDS011;56545;48.224;11.678;2023-01-23T03:59:19;28.70;;;17.73;;
43628;SDS011;56545;48.224;11.678;2023-01-23T04:01:45;27.75;;;17.50;;
43628;SDS011;56545;48.224;11.678;2023-01-23T04:04:12;27.55;;;17.85;;
43628;SDS011;56545;48.224;11.678;2023-01-23T04:06:39;27.10;;;17.40;;
43628;SDS011;56545;48.224;11.678;2023-01-23T04:09:05;29.33;;;18.52;;
43628;SDS011;56545;48.224;11.678;2023-01-23T04:11:31;29.23;;;18.20;;
43628;SDS011;56545;48.224;11.678;2023-01-23T04:13:57;26.65;;;17.50;;
43628;SDS011;56545;48.224;11.678;2023-01-23T04:16:22;28.33;;;17.83;;
43628;SDS011;56545;48.224;11.678;2023-01-23T04:18:49;26.83;;;17.25;;
43628;SDS011;56545;48.224;11.678;2023-01-23T04:21:16;27.13;;;17.98;;
43628;SDS011;56545;48.224;11.678;2023-01-23T04:23:42;28.25;;;17.70;;
43628;SDS011;56545;48.224;11.678;2023-01-23T04:26:08;31.27;;;18.83;;
43628;SDS011;56545;48.224;11.678;2023-01-23T04:28:34;29.05;;;17.75;;
43628;SDS011;56545;48.224;11.678;2023-01-23T04:31:00;29.50;;;18.35;;
43628;SDS011;56545;48.224;11.678;2023-01-23T04:33:26;28.98;;;18.20;;
43628;SDS011;56545;48.224;11.678;2023-01-23T04:35:54;27.85;;;18.35;;
43628;SDS011;56545;48.224;11.678;2023-01-23T04:38:22;29.48;;;18.27;;
43628;SDS011;56545;48.224;11.678;2023-01-23T04:40:50;28.27;;;18.65;;
43628;SDS011;56545;48.224;11.678;2023-01-23T04:43:16;30.05;;;19.33;;
43628;SDS011;56545;48.224;11.678;2023-01-23T04:45:43;29.35;;;18.33;;
43628;SDS011;56545;48.224;11.678;2023-01-23T04:48:10;29.75;;;18.77;;
43628;SDS011;56545;48.224;11.678;2023-01-23T04:50:37;29.27;;;18.73;;
43628;SDS011;56545;48.224;11.678;2023-01-23T04:53:04;33.17;;;19.35;;
43628;SDS011;56545;48.224;11.678;2023-01-23T04:55:30;29.00;;;18.67;;
43628;SDS011;56545;48.224;11.678;2023-01-23T04:57:57;32.00;;;19.38;;
43628;SDS011;56545;48.224;11.678;2023-01-23T05:00:24;29.75;;;19.00;;
43628;SDS011;56545;48.224;11.678;2023-01-23T05:02:52;28.98;;;18.60;;
43628;SDS011;56545;48.224;11.678;2023-01-23T05:05:19;28.10;;;18.60;;
43628;SDS011;56545;48.224;11.678;2023-01-23T05:07:46;28.58;;;18.77;;
43628;SDS011;56545;48.224;11.678;2023-01-23T05:10:13;31.05;;;20.20;;
43628;SDS011;56545;48.224;11.678;2023-01-23T05:12:39;30.30;;;19.10;;
43628;SDS011;56545;48.224;11.678;2023-01-23T05:15:06;32.53;;;19.92;;
43628;SDS011;56545;48.224;11.678;2023-01-23T05:17:34;32.35;;;20.60;;
43628;SDS011;56545;48.224;11.678;2023-01-23T05:20:00;30.67;;;19.00;;
43628;SDS011;56545;48.224;11.678;2023-01-23T05:22:27;27.70;;;18.33;;
43628;SDS011;56545;48.224;11.678;2023-01-23T05:24:53;28.90;;;18.52;;
43628;SDS011;56545;48.224;11.678;2023-01-23T05:27:19;30.85;;;19.90;;
43628;SDS011;56545;48.224;11.678;2023-01-23T05:29:45;33.70;;;20.95;;
43628;SDS011;56545;48.224;11.678;2023-01-23T05:32:20;28.08;;;18.73;;
43628;SDS011;56545;48.224;11.678;2023-01-23T05:35:00;31.00;;;20.13;;
43628;SDS011;56545;48.224;11.678;2023-01-23T05:37:31;29.58;;;19.15;;
43628;SDS011;56545;48.224;11.678;2023-01-23T05:39:57;31.55;;;19.05;;
43628;SDS011;56545;48.224;11.678;2023-01-23T05:42:23;33.47;;;19.88;;
43628;SDS011;56545;48.224;11.678;2023-01-23T05:44:49;28.92;;;18.75;;
43628;SDS011;56545;48.224;11.678;2023-01-23T05:47:18;31.25;;;18.77;;
43628;SDS011;56545;48.224;11.678;2023-01-23T05:49:44;26.85;;;17.98;;
43628;SDS011;56545;48.224;11.678;2023-01-23T05:52:11;28.65;;;17.45;;
43628;SDS011;56545;48.224;11.678;2023-01-23T05:54:37;28.63;;;17.50;;
43628;SDS011;56545;48.224;11.678;2023-01-23T05:57:03;30.45;;;19.45;;
43628;SDS011;56545;48.224;11.678;2023-01-23T05:59:29;28.20;;;18.10;;
43628;SDS011;56545;48.224;11.678;2023-01-23T06:01:55;28.65;;;17.50;;
43628;SDS011;56545;48.224;11.678;2023-01-23T06:04:21;28.58;;;18.15;;
43628;SDS011;56545;48.224;11.678;2023-01-23T06:06:48;28.88;;;18.45;;
43628;SDS011;56545;48.224;11.678;2023-01-23T06:09:14;30.73;;;19.23;;
43628;SDS011;56545;48.224;11.678;2023-01-23T06:11:40;28.73;;;18.13;;
43628;SDS011;56545;48.224;11.678;2023-01-23T06:14:05;34.03;;;19.92;;
43628;SDS011;56545;48.224;11.678;2023-01-23T06:16:31;32.65;;;19.98;;
43628;SDS011;56545;48.224;11.678;2023-01-23T06:18:57;37.30;;;22.45;;
43628;SDS011;56545;48.224;11.678;2023-01-23T06:21:23;38.92;;;23.45;;
43628;SDS011;56545;48.224;11.678;2023-01-23T06:23:49;37.15;;;22.52;;
43628;SDS011;56545;48.224;11.678;2023-01-23T06:26:15;40.22;;;23.08;;
43628;SDS011;56545;48.224;11.678;2023-01-23T06:28:41;41.45;;;22.80;;
43628;SDS011;56545;48.224;11.678;2023-01-23T06:31:07;41.20;;;23.55;;
43628;SDS011;56545;48.224;11.678;2023-01-23T06:33:34;38.53;;;22.67;;
43628;SDS011;56545;48.224;11.678;2023-01-23T06:36:01;41.33;;;23.45;;
43628;SDS011;56545;48.224;11.678;2023-01-23T06:38:28;45.63;;;23.90;;
43628;SDS011;56545;48.224;11.678;2023-01-23T06:40:54;40.67;;;23.50;;
43628;SDS011;56545;48.224;11.678;2023-01-23T06:43:21;43.97;;;24.13;;
43628;SDS011;56545;48.224;11.678;2023-01-23T06:45:48;48.50;;;25.75;;
43628;SDS011;56545;48.224;11.678;2023-01-23T06:48:15;47.88;;;25.25;;
43628;SDS011;56545;48.224;11.678;2023-01-23T06:50:41;55.03;;;27.17;;
43628;SDS011;56545;48.224;11.678;2023-01-23T06:53:08;52.72;;;27.45;;
43628;SDS011;56545;48.224;11.678;2023-01-23T06:55:36;53.28;;;27.75;;
43628;SDS011;56545;48.224;11.678;2023-01-23T06:58:02;52.30;;;26.95;;
43628;SDS011;56545;48.224;11.678;2023-01-23T07:00:29;49.65;;;25.98;;
43628;SDS011;56545;48.224;11.678;2023-01-23T07:02:55;51.13;;;27.90;;
43628;SDS011;56545;48.224;11.678;2023-01-23T07:05:23;55.45;;;27.73;;
43628;SDS011;56545;48.224;11.678;2023-01-23T07:07:50;62.80;;;29.00;;
43628;SDS011;56545;48.224;11.678;2023-01-23T07:10:16;58.75;;;28.50;;
43628;SDS011;56545;48.224;11.678;2023-01-23T07:12:42;54.13;;;28.40;;
43628;SDS011;56545;48.224;11.678;2023-01-23T07:15:08;55.83;;;27.85;;
43628;SDS011;56545;48.224;11.678;2023-01-23T07:17:34;55.00;;;27.88;;
43628;SDS011;56545;48.224;11.678;2023-01-23T07:20:00;49.55;;;27.05;;
43628;SDS011;56545;48.224;11.678;2023-01-23T07:22:26;56.20;;;27.50;;
43628;SDS011;56545;48.224;11.678;2023-01-23T07:24:52;50.45;;;26.23;;
43628;SDS011;56545;48.224;11.678;2023-01-23T07:27:18;49.53;;;26.10;;
43628;SDS011;56545;48.224;11.678;2023-01-23T07:29:44;50.00;;;26.55;;
43628;SDS011;56545;48.224;11.678;2023-01-23T07:32:10;46.55;;;24.83;;
43628;SDS011;56545;48.224;11.678;2023-01-23T07:34:37;48.10;;;25.08;;
43628;SDS011;56545;48.224;11.678;2023-01-23T07:37:03;44.22;;;24.35;;
43628;SDS011;56545;48.224;11.678;2023-01-23T07:39:29;40.35;;;24.20;;
43628;SDS011;56545;48.224;11.678;2023-01-23T07:41:55;40.17;;;23.05;;
43628;SDS011;56545;48.224;11.678;2023-01-23T07:44:21;41.83;;;23.73;;
43628;SDS011;56545;48.224;11.678;2023-01-23T07:46:47;38.38;;;22.40;;
43628;SDS011;56545;48.224;11.678;2023-01-23T07:49:13;39.25;;;21.50;;
43628;SDS011;56545;48.224;11.678;2023-01-23T07:51:40;34.95;;;21.05;;
43628;SDS011;56545;48.224;11.678;2023-01-23T07:54:06;34.85;;;20.42;;
43628;SDS011;56545;48.224;11.678;2023-01-23T07:56:32;32.75;;;20.05;;
43628;SDS011;56545;48.224;11.678;2023-01-23T07:58:58;33.03;;;19.98;;
43628;SDS011;56545;48.224;11.678;2023-01-23T08:01:25;34.25;;;20.52;;
43628;SDS011;56545;48.224;11.678;2023-01-23T08:03:51;34.65;;;20.30;;
43628;SDS011;56545;48.224;11.678;2023-01-23T08:06:17;35.92;;;19.67;;
43628;SDS011;56545;48.224;11.678;2023-01-23T08:08:43;33.22;;;20.48;;
43628;SDS011;56545;48.224;11.678;2023-01-23T08:11:12;31.63;;;19.20;;
43628;SDS011;56545;48.224;11.678;2023-01-23T08:13:38;33.20;;;19.25;;
43628;SDS011;56545;48.224;11.678;2023-01-23T08:16:04;33.63;;;19.23;;
43628;SDS011;56545;48.224;11.678;2023-01-23T08:18:31;30.60;;;19.33;;
43628;SDS011;56545;48.224;11.678;2023-01-23T08:20:58;31.80;;;18.42;;
43628;SDS011;56545;48.224;11.678;2023-01-23T08:23:26;30.92;;;18.75;;
43628;SDS011;56545;48.224;11.678;2023-01-23T08:25:54;32.88;;;19.38;;
43628;SDS011;56545;48.224;11.678;2023-01-23T08:28:22;34.97;;;21.50;;
43628;SDS011;56545;48.224;11.678;2023-01-23T08:30:49;32.92;;;19.20;;
43628;SDS011;56545;48.224;11.678;2023-01-23T08:33:16;33.10;;;19.35;;
43628;SDS011;56545;48.224;11.678;2023-01-23T08:35:49;31.70;;;19.00;;
43628;SDS011;56545;48.224;11.678;2023-01-23T08:38:16;32.95;;;19.85;;
43628;SDS011;56545;48.224;11.678;2023-01-23T08:40:43;31.08;;;18.70;;
43628;SDS011;56545;48.224;11.678;2023-01-23T08:43:10;30.90;;;19.05;;
43628;SDS011;56545;48.224;11.678;2023-01-23T08:45:38;30.67;;;18.80;;
43628;SDS011;56545;48.224;11.678;2023-01-23T08:48:09;26.98;;;16.88;;
43628;SDS011;56545;48.224;11.678;2023-01-23T08:50:36;28.77;;;17.70;;
43628;SDS011;56545;48.224;11.678;2023-01-23T08:53:02;28.38;;;18.17;;
43628;SDS011;56545;48.224;11.678;2023-01-23T08:55:28;28.98;;;17.63;;
43628;SDS011;56545;48.224;11.678;2023-01-23T08:57:54;27.50;;;18.00;;
43628;SDS011;56545;48.224;11.678;2023-01-23T09:00:20;34.03;;;18.02;;
43628;SDS011;56545;48.224;11.678;2023-01-23T09:02:46;28.48;;;17.65;;
43628;SDS011;56545;48.224;11.678;2023-01-23T09:05:12;28.13;;;17.30;;
43628;SDS011;56545;48.224;11.678;2023-01-23T09:07:38;28.08;;;17.55;;
43628;SDS011;56545;48.224;11.678;2023-01-23T09:10:05;31.83;;;17.95;;
43628;SDS011;56545;48.224;11.678;2023-01-23T09:12:31;27.38;;;16.63;;
43628;SDS011;56545;48.224;11.678;2023-01-23T09:14:57;27.45;;;16.80;;
43628;SDS011;56545;48.224;11.678;2023-01-23T09:17:23;27.27;;;16.63;;
43628;SDS011;56545;48.224;11.678;2023-01-23T09:19:50;30.23;;;17.63;;
43628;SDS011;56545;48.224;11.678;2023-01-23T09:22:17;28.13;;;17.48;;
43628;SDS011;56545;48.224;11.678;2023-01-23T09:24:43;30.17;;;18.13;;
43628;SDS011;56545;48.224;11.678;2023-01-23T09:27:09;27.77;;;17.02;;
43628;SDS011;56545;48.224;11.678;2023-01-23T09:29:35;29.63;;;17.90;;
43628;SDS011;56545;48.224;11.678;2023-01-23T09:32:02;28.00;;;17.63;;
43628;SDS011;56545;48.224;11.678;2023-01-23T09:34:28;28.58;;;17.65;;
43628;SDS011;56545;48.224;11.678;2023-01-23T09:36:54;29.75;;;17.25;;
43628;SDS011;56545;48.224;11.678;2023-01-23T09:39:20;26.08;;;16.90;;
43628;SDS011;56545;48.224;11.678;2023-01-23T09:41:47;26.65;;;16.98;;
43628;SDS011;56545;48.224;11.678;2023-01-23T09:46:47;28.37;;;17.07;;
43628;SDS011;56545;48.224;11.678;2023-01-23T09:51:55;27.48;;;16.25;;
43628;SDS011;56545;48.224;11.678;2023-01-23T09:54:31;25.35;;;15.27;;
43628;SDS011;56545;48.224;11.678;2023-01-23T09:57:13;25.10;;;16.05;;
43628;SDS011;56545;48.224;11.678;2023-01-23T10:02:30;25.80;;;15.50;;
43628;SDS011;56545;48.224;11.678;2023-01-23T10:04:57;26.00;;;15.68;;
43628;SDS011;56545;48.224;11.678;2023-01-23T10:10:09;26.67;;;16.25;;
43628;SDS011;56545;48.224;11.678;2023-01-23T10:13:05;27.10;;;17.10;;
43628;SDS011;56545;48.224;11.678;2023-01-23T10:18:14;28.30;;;17.52;;
43628;SDS011;56545;48.224;11.678;2023-01-23T10:26:44;27.02;;;16.52;;
43628;SDS011;56545;48.224;11.678;2023-01-23T10:29:13;25.58;;;16.77;;
43628;SDS011;56545;48.224;11.678;2023-01-23T10:31:54;24.83;;;16.08;;
43628;SDS011;56545;48.224;11.678;2023-01-23T10:34:29;24.10;;;15.88;;
43628;SDS011;56545;48.224;11.678;2023-01-23T10:37:12;24.70;;;15.48;;
43628;SDS011;56545;48.224;11.678;2023-01-23T10:42:21;25.73;;;16.10;;
43628;SDS011;56545;48.224;11.678;2023-01-23T10:44:49;26.63;;;16.13;;
43628;SDS011;56545;48.224;11.678;2023-01-23T10:47:19;25.00;;;16.25;;
43628;SDS011;56545;48.224;11.678;2023-01-23T10:49:58;24.00;;;15.87;;
43628;SDS011;56545;48.224;11.678;2023-01-23T10:52:28;23.17;;;15.13;;
43628;SDS011;56545;48.224;11.678;2023-01-23T10:57:47;23.27;;;15.55;;
43628;SDS011;56545;48.224;11.678;2023-01-23T11:00:28;23.92;;;14.82;;
43628;SDS011;56545;48.224;11.678;2023-01-23T11:06:06;22.23;;;14.10;;
43628;SDS011;56545;48.224;11.678;2023-01-23T11:08:34;23.92;;;15.48;;
43628;SDS011;56545;48.224;11.678;2023-01-23T11:13:45;22.45;;;14.20;;
43628;SDS011;56545;48.224;11.678;2023-01-23T11:16:12;21.88;;;14.32;;
43628;SDS011;56545;48.224;11.678;2023-01-23T11:21:23;26.15;;;15.30;;
43628;SDS011;56545;48.224;11.678;2023-01-23T11:24:06;22.50;;;14.45;;
43628;SDS011;56545;48.224;11.678;2023-01-23T11:26:45;24.33;;;14.98;;
43628;SDS011;56545;48.224;11.678;2023-01-23T11:29:21;21.65;;;14.57;;
43628;SDS011;56545;48.224;11.678;2023-01-23T11:32:03;22.35;;;14.80;;
43628;SDS011;56545;48.224;11.678;2023-01-23T11:34:41;21.13;;;14.50;;
43628;SDS011;56545;48.224;11.678;2023-01-23T11:40:13;24.42;;;15.70;;
43628;SDS011;56545;48.224;11.678;2023-01-23T11:42:42;23.38;;;14.75;;
43628;SDS011;56545;48.224;11.678;2023-01-23T11:53:54;17.42;;;11.02;;
43628;SDS011;56545;48.224;11.678;2023-01-23T11:59:56;23.20;;;14.10;;
43628;SDS011;56545;48.224;11.678;2023-01-23T12:09:03;22.83;;;14.75;;
43628;SDS011;56545;48.224;11.678;2023-01-23T12:11:15;23.10;;;14.68;;
43628;SDS011;56545;48.224;11.678;2023-01-23T12:25:28;28.80;;;18.88;;
43628;SDS011;56545;48.224;11.678;2023-01-23T12:27:56;27.73;;;18.97;;
43628;SDS011;56545;48.224;11.678;2023-01-23T12:30:47;21.20;;;14.40;;
43628;SDS011;56545;48.224;11.678;2023-01-23T12:41:58;22.77;;;14.95;;
43628;SDS011;56545;48.224;11.678;2023-01-23T12:47:07;25.23;;;14.95;;
43628;SDS011;56545;48.224;11.678;2023-01-23T12:49:39;23.75;;;15.20;;
43628;SDS011;56545;48.224;11.678;2023-01-23T12:55:10;21.38;;;14.40;;
43628;SDS011;56545;48.224;11.678;2023-01-23T12:57:42;20.85;;;13.75;;
43628;SDS011;56545;48.224;11.678;2023-01-23T13:00:28;20.63;;;13.75;;
43628;SDS011;56545;48.224;11.678;2023-01-23T13:03:17;21.52;;;14.25;;
43628;SDS011;56545;48.224;11.678;2023-01-23T13:08:39;21.27;;;13.90;;
43628;SDS011;56545;48.224;11.678;2023-01-23T13:11:23;20.60;;;13.73;;
43628;SDS011;56545;48.224;11.678;2023-01-23T13:14:16;22.08;;;14.10;;
43628;SDS011;56545;48.224;11.678;2023-01-23T13:19:23;22.88;;;13.90;;
43628;SDS011;56545;48.224;11.678;2023-01-23T13:24:45;20.75;;;14.20;;
43628;SDS011;56545;48.224;11.678;2023-01-23T13:32:53;20.35;;;13.50;;
43628;SDS011;56545;48.224;11.678;2023-01-23T13:52:16;22.73;;;14.90;;
43628;SDS011;56545;48.224;11.678;2023-01-23T13:55:11;22.52;;;14.77;;
43628;SDS011;56545;48.224;11.678;2023-01-23T13:58:01;22.30;;;14.85;;
43628;SDS011;56545;48.224;11.678;2023-01-23T14:00:28;21.65;;;14.20;;
43628;SDS011;56545;48.224;11.678;2023-01-23T14:03:08;21.88;;;14.93;;
43628;SDS011;56545;48.224;11.678;2023-01-23T14:06:05;22.48;;;15.25;;
43628;SDS011;56545;48.224;11.678;2023-01-23T14:08:32;21.97;;;14.80;;
43628;SDS011;56545;48.224;11.678;2023-01-23T14:11:13;22.30;;;15.10;;
43628;SDS011;56545;48.224;11.678;2023-01-23T14:13:45;22.52;;;14.43;;
43628;SDS011;56545;48.224;11.678;2023-01-23T14:16:15;20.58;;;14.00;;
43628;SDS011;56545;48.224;11.678;2023-01-23T14:18:51;22.95;;;14.65;;
43628;SDS011;56545;48.224;11.678;2023-01-23T14:21:24;20.65;;;14.32;;
43628;SDS011;56545;48.224;11.678;2023-01-23T14:23:56;22.38;;;14.98;;
43628;SDS011;56545;48.224;11.678;2023-01-23T14:26:32;22.13;;;14.50;;
43628;SDS011;56545;48.224;11.678;2023-01-23T14:29:18;22.83;;;14.35;;
43628;SDS011;56545;48.224;11.678;2023-01-23T14:31:49;21.38;;;14.05;;
43628;SDS011;56545;48.224;11.678;2023-01-23T14:34:18;22.40;;;14.50;;
43628;SDS011;56545;48.224;11.678;2023-01-23T14:36:48;22.83;;;14.68;;
43628;SDS011;56545;48.224;11.678;2023-01-23T14:39:17;23.48;;;14.90;;
43628;SDS011;56545;48.224;11.678;2023-01-23T14:41:54;21.98;;;14.15;;
43628;SDS011;56545;48.224;11.678;2023-01-23T14:44:26;21.65;;;14.43;;
43628;SDS011;56545;48.224;11.678;2023-01-23T14:49:23;31.55;;;17.65;;
43628;SDS011;56545;48.224;11.678;2023-01-23T14:51:59;26.05;;;16.52;;
43628;SDS011;56545;48.224;11.678;2023-01-23T14:54:27;23.67;;;15.90;;
43628;SDS011;56545;48.224;11.678;2023-01-23T14:56:53;20.92;;;13.75;;
43628;SDS011;56545;48.224;11.678;2023-01-23T15:01:55;22.05;;;14.35;;
43628;SDS011;56545;48.224;11.678;2023-01-23T15:04:23;19.20;;;13.23;;
43628;SDS011;56545;48.224;11.678;2023-01-23T15:06:55;21.40;;;13.85;;
43628;SDS011;56545;48.224;11.678;2023-01-23T15:09:33;23.27;;;15.20;;
43628;SDS011;56545;48.224;11.678;2023-01-23T15:12:05;22.95;;;14.40;;
43628;SDS011;56545;48.224;11.678;2023-01-23T15:14:39;23.40;;;14.73;;
43628;SDS011;56545;48.224;11.678;2023-01-23T15:17:06;23.40;;;15.00;;
43628;SDS011;56545;48.224;11.678;2023-01-23T15:19:40;22.08;;;14.80;;
43628;SDS011;56545;48.224;11.678;2023-01-23T15:22:15;21.27;;;13.68;;
43628;SDS011;56545;48.224;11.678;2023-01-23T15:24:44;22.85;;;14.88;;
43628;SDS011;56545;48.224;11.678;2023-01-23T15:32:57;24.00;;;14.90;;
43628;SDS011;56545;48.224;11.678;2023-01-23T15:35:34;24.98;;;15.40;;
43628;SDS011;56545;48.224;11.678;2023-01-23T15:38:01;24.55;;;15.23;;
43628;SDS011;56545;48.224;11.678;2023-01-23T15:40:29;26.23;;;16.33;;
43628;SDS011;56545;48.224;11.678;2023-01-23T15:42:59;30.50;;;19.10;;
43628;SDS011;56545;48.224;11.678;2023-01-23T15:45:27;23.63;;;15.15;;
43628;SDS011;56545;48.224;11.678;2023-01-23T15:47:53;24.70;;;15.65;;
43628;SDS011;56545;48.224;11.678;2023-01-23T15:50:19;28.25;;;18.50;;
43628;SDS011;56545;48.224;11.678;2023-01-23T15:52:47;25.75;;;17.13;;
43628;SDS011;56545;48.224;11.678;2023-01-23T15:55:14;24.40;;;16.60;;
43628;SDS011;56545;48.224;11.678;2023-01-23T15:57:40;28.80;;;18.10;;
43628;SDS011;56545;48.224;11.678;2023-01-23T16:02:43;22.23;;;13.60;;
43628;SDS011;56545;48.224;11.678;2023-01-23T16:05:09;21.77;;;13.13;;
43628;SDS011;56545;48.224;11.678;2023-01-23T16:07:37;20.63;;;13.23;;
43628;SDS011;56545;48.224;11.678;2023-01-23T16:10:24;25.23;;;14.07;;
43628;SDS011;56545;48.224;11.678;2023-01-23T16:12:55;19.95;;;12.93;;
43628;SDS011;56545;48.224;11.678;2023-01-23T16:15:32;20.85;;;13.60;;
43628;SDS011;56545;48.224;11.678;2023-01-23T16:17:59;20.70;;;13.68;;
43628;SDS011;56545;48.224;11.678;2023-01-23T16:20:27;20.02;;;13.27;;
43628;SDS011;56545;48.224;11.678;2023-01-23T16:22:55;22.55;;;14.13;;
43628;SDS011;56545;48.224;11.678;2023-01-23T16:25:27;23.02;;;14.45;;
43628;SDS011;56545;48.224;11.678;2023-01-23T16:27:56;21.77;;;13.98;;
43628;SDS011;56545;48.224;11.678;2023-01-23T16:30:23;22.85;;;15.20;;
43628;SDS011;56545;48.224;11.678;2023-01-23T16:32:51;23.08;;;14.65;;
43628;SDS011;56545;48.224;11.678;2023-01-23T16:35:17;24.55;;;15.13;;
43628;SDS011;56545;48.224;11.678;2023-01-23T16:37:44;22.65;;;15.02;;